sensor_id;sensor_type;location;lat;lon;timestamp;P1;durP1;ratioP1;P2;durP2;ratioP2
44636;SDS011;30343;0.000;0.000;2022-07-17T00:01:01;7.85;;;2.92;;
44636;SDS011;30343;0.000;0.000;2022-07-17T00:03:54;5.72;;;2.25;;
44636;SDS011;30343;0.000;0.000;2022-07-17T00:06:41;6.70;;;2.58;;
44636;SDS011;30343;0.000;0.000;2022-07-17T00:09:25;4.03;;;2.30;;
44636;SDS011;30343;0.000;0.000;2022-07-17T00:12:09;6.40;;;2.83;;
44636;SDS011;30343;0.000;0.000;2022-07-17T00:15:04;4.10;;;2.75;;
44636;SDS011;30343;0.000;0.000;2022-07-17T00:17:51;5.13;;;2.67;;
44636;SDS011;30343;0.000;0.000;2022-07-17T00:20:44;4.03;;;2.45;;
44636;SDS011;30343;0.000;0.000;2022-07-17T00:23:31;5.72;;;2.40;;
44636;SDS011;30343;0.000;0.000;2022-07-17T00:26:23;4.72;;;2.33;;
44636;SDS011;30343;0.000;0.000;2022-07-17T00:29:10;12.02;;;2.55;;
44636;SDS011;30343;0.000;0.000;2022-07-17T00:32:06;6.28;;;2.85;;
44636;SDS011;30343;0.000;0.000;2022-07-17T00:34:53;5.95;;;2.58;;
44636;SDS011;30343;0.000;0.000;2022-07-17T00:37:40;4.45;;;2.65;;
44636;SDS011;30343;0.000;0.000;2022-07-17T00:40:26;6.45;;;2.45;;
44636;SDS011;30343;0.000;0.000;2022-07-17T00:43:12;5.18;;;2.30;;
44636;SDS011;30343;0.000;0.000;2022-07-17T00:46:02;6.25;;;2.60;;
44636;SDS011;30343;0.000;0.000;2022-07-17T00:48:50;9.10;;;2.63;;
44636;SDS011;30343;0.000;0.000;2022-07-17T00:51:40;5.63;;;2.55;;
44636;SDS011;30343;0.000;0.000;2022-07-17T00:54:27;4.97;;;2.83;;
44636;SDS011;30343;0.000;0.000;2022-07-17T00:57:16;7.43;;;2.65;;
44636;SDS011;30343;0.000;0.000;2022-07-17T01:00:04;8.30;;;2.60;;
44636;SDS011;30343;0.000;0.000;2022-07-17T01:02:53;9.30;;;3.47;;
44636;SDS011;30343;0.000;0.000;2022-07-17T01:05:43;8.52;;;2.58;;
44636;SDS011;30343;0.000;0.000;2022-07-17T01:08:34;5.47;;;2.25;;
44636;SDS011;30343;0.000;0.000;2022-07-17T01:11:20;4.63;;;2.15;;
44636;SDS011;30343;0.000;0.000;2022-07-17T01:14:13;10.65;;;3.13;;
44636;SDS011;30343;0.000;0.000;2022-07-17T01:17:00;6.68;;;2.33;;
44636;SDS011;30343;0.000;0.000;2022-07-17T01:19:50;5.72;;;2.40;;
44636;SDS011;30343;0.000;0.000;2022-07-17T01:22:46;6.88;;;2.67;;
44636;SDS011;30343;0.000;0.000;2022-07-17T01:25:32;8.98;;;2.80;;
44636;SDS011;30343;0.000;0.000;2022-07-17T01:28:22;5.10;;;2.38;;
44636;SDS011;30343;0.000;0.000;2022-07-17T01:31:09;5.15;;;2.63;;
44636;SDS011;30343;0.000;0.000;2022-07-17T01:33:56;9.60;;;2.70;;
44636;SDS011;30343;0.000;0.000;2022-07-17T01:36:45;5.68;;;2.45;;
44636;SDS011;30343;0.000;0.000;2022-07-17T01:39:34;6.80;;;2.35;;
44636;SDS011;30343;0.000;0.000;2022-07-17T01:42:41;4.60;;;2.38;;
44636;SDS011;30343;0.000;0.000;2022-07-17T01:45:29;5.63;;;2.38;;
44636;SDS011;30343;0.000;0.000;2022-07-17T01:48:28;8.38;;;2.25;;
44636;SDS011;30343;0.000;0.000;2022-07-17T01:51:16;5.75;;;2.80;;
44636;SDS011;30343;0.000;0.000;2022-07-17T01:54:06;4.35;;;2.60;;
44636;SDS011;30343;0.000;0.000;2022-07-17T01:56:50;9.10;;;3.03;;
44636;SDS011;30343;0.000;0.000;2022-07-17T01:59:33;7.97;;;3.25;;
44636;SDS011;30343;0.000;0.000;2022-07-17T02:02:23;9.77;;;2.85;;
44636;SDS011;30343;0.000;0.000;2022-07-17T02:05:13;3.70;;;2.40;;
44636;SDS011;30343;0.000;0.000;2022-07-17T02:08:06;9.90;;;3.08;;
44636;SDS011;30343;0.000;0.000;2022-07-17T02:10:53;6.28;;;3.13;;
44636;SDS011;30343;0.000;0.000;2022-07-17T02:13:39;6.20;;;2.80;;
44636;SDS011;30343;0.000;0.000;2022-07-17T02:19:19;7.65;;;2.78;;
44636;SDS011;30343;0.000;0.000;2022-07-17T02:22:03;10.18;;;2.63;;
44636;SDS011;30343;0.000;0.000;2022-07-17T02:24:50;5.78;;;2.55;;
44636;SDS011;30343;0.000;0.000;2022-07-17T02:27:40;5.68;;;2.80;;
44636;SDS011;30343;0.000;0.000;2022-07-17T02:30:27;8.07;;;2.85;;
44636;SDS011;30343;0.000;0.000;2022-07-17T02:33:14;12.10;;;2.78;;
44636;SDS011;30343;0.000;0.000;2022-07-17T02:36:01;10.43;;;2.53;;
44636;SDS011;30343;0.000;0.000;2022-07-17T02:38:48;14.80;;;3.47;;
44636;SDS011;30343;0.000;0.000;2022-07-17T02:41:32;9.27;;;2.80;;
44636;SDS011;30343;0.000;0.000;2022-07-17T02:44:15;10.10;;;3.33;;
44636;SDS011;30343;0.000;0.000;2022-07-17T02:47:08;10.90;;;3.08;;
44636;SDS011;30343;0.000;0.000;2022-07-17T02:49:52;7.55;;;2.60;;
44636;SDS011;30343;0.000;0.000;2022-07-17T02:52:50;8.80;;;2.70;;
44636;SDS011;30343;0.000;0.000;2022-07-17T02:55:34;6.63;;;2.63;;
44636;SDS011;30343;0.000;0.000;2022-07-17T02:58:26;9.43;;;3.10;;
44636;SDS011;30343;0.000;0.000;2022-07-17T03:01:16;16.98;;;2.58;;
44636;SDS011;30343;0.000;0.000;2022-07-17T03:04:00;11.18;;;3.00;;
44636;SDS011;30343;0.000;0.000;2022-07-17T03:06:44;8.02;;;3.33;;
44636;SDS011;30343;0.000;0.000;2022-07-17T03:09:30;8.90;;;2.80;;
44636;SDS011;30343;0.000;0.000;2022-07-17T03:12:21;11.25;;;3.25;;
44636;SDS011;30343;0.000;0.000;2022-07-17T03:15:08;12.20;;;3.17;;
44636;SDS011;30343;0.000;0.000;2022-07-17T03:17:54;9.90;;;2.97;;
44636;SDS011;30343;0.000;0.000;2022-07-17T03:20:47;4.40;;;3.03;;
44636;SDS011;30343;0.000;0.000;2022-07-17T03:23:37;5.70;;;2.60;;
44636;SDS011;30343;0.000;0.000;2022-07-17T03:26:24;10.13;;;3.63;;
44636;SDS011;30343;0.000;0.000;2022-07-17T03:29:08;7.97;;;2.60;;
44636;SDS011;30343;0.000;0.000;2022-07-17T03:31:55;9.13;;;2.90;;
44636;SDS011;30343;0.000;0.000;2022-07-17T03:34:42;9.40;;;3.05;;
44636;SDS011;30343;0.000;0.000;2022-07-17T03:37:29;6.20;;;2.58;;
44636;SDS011;30343;0.000;0.000;2022-07-17T03:40:19;6.57;;;2.67;;
44636;SDS011;30343;0.000;0.000;2022-07-17T03:43:13;9.02;;;3.17;;
44636;SDS011;30343;0.000;0.000;2022-07-17T03:46:03;8.13;;;3.38;;
44636;SDS011;30343;0.000;0.000;2022-07-17T03:48:52;9.93;;;3.42;;
44636;SDS011;30343;0.000;0.000;2022-07-17T03:51:36;13.05;;;3.63;;
44636;SDS011;30343;0.000;0.000;2022-07-17T03:54:20;15.32;;;3.40;;
44636;SDS011;30343;0.000;0.000;2022-07-17T03:57:04;10.02;;;3.28;;
44636;SDS011;30343;0.000;0.000;2022-07-17T03:59:56;10.18;;;3.10;;
44636;SDS011;30343;0.000;0.000;2022-07-17T04:02:46;8.98;;;3.28;;
44636;SDS011;30343;0.000;0.000;2022-07-17T04:05:36;6.95;;;3.00;;
44636;SDS011;30343;0.000;0.000;2022-07-17T04:08:28;7.72;;;2.88;;
44636;SDS011;30343;0.000;0.000;2022-07-17T04:11:18;8.40;;;2.72;;
44636;SDS011;30343;0.000;0.000;2022-07-17T04:14:08;6.00;;;3.13;;
44636;SDS011;30343;0.000;0.000;2022-07-17T04:16:52;9.63;;;3.30;;
44636;SDS011;30343;0.000;0.000;2022-07-17T04:19:42;7.70;;;2.88;;
44636;SDS011;30343;0.000;0.000;2022-07-17T04:22:26;5.43;;;3.13;;
44636;SDS011;30343;0.000;0.000;2022-07-17T04:25:10;5.00;;;3.15;;
44636;SDS011;30343;0.000;0.000;2022-07-17T04:27:56;6.47;;;2.63;;
44636;SDS011;30343;0.000;0.000;2022-07-17T04:30:49;11.25;;;2.97;;
44636;SDS011;30343;0.000;0.000;2022-07-17T04:33:39;6.60;;;2.63;;
44636;SDS011;30343;0.000;0.000;2022-07-17T04:36:29;9.30;;;3.65;;
44636;SDS011;30343;0.000;0.000;2022-07-17T04:39:19;5.65;;;2.67;;
44636;SDS011;30343;0.000;0.000;2022-07-17T04:42:03;6.18;;;2.67;;
44636;SDS011;30343;0.000;0.000;2022-07-17T04:44:47;8.48;;;2.47;;
44636;SDS011;30343;0.000;0.000;2022-07-17T04:47:37;7.53;;;2.83;;
44636;SDS011;30343;0.000;0.000;2022-07-17T04:50:25;7.28;;;2.70;;
44636;SDS011;30343;0.000;0.000;2022-07-17T04:53:09;4.32;;;2.70;;
44636;SDS011;30343;0.000;0.000;2022-07-17T04:55:56;12.10;;;3.28;;
44636;SDS011;30343;0.000;0.000;2022-07-17T04:58:43;13.90;;;4.03;;
44636;SDS011;30343;0.000;0.000;2022-07-17T05:01:32;9.35;;;2.95;;
44636;SDS011;30343;0.000;0.000;2022-07-17T05:04:19;10.57;;;3.63;;
44636;SDS011;30343;0.000;0.000;2022-07-17T05:07:06;9.35;;;4.00;;
44636;SDS011;30343;0.000;0.000;2022-07-17T05:09:50;11.48;;;3.13;;
44636;SDS011;30343;0.000;0.000;2022-07-17T05:12:35;12.38;;;3.53;;
44636;SDS011;30343;0.000;0.000;2022-07-17T05:15:22;10.60;;;3.80;;
44636;SDS011;30343;0.000;0.000;2022-07-17T05:18:07;12.48;;;3.33;;
44636;SDS011;30343;0.000;0.000;2022-07-17T05:20:52;8.48;;;3.53;;
44636;SDS011;30343;0.000;0.000;2022-07-17T05:23:36;12.82;;;3.53;;
44636;SDS011;30343;0.000;0.000;2022-07-17T05:26:20;10.43;;;4.05;;
44636;SDS011;30343;0.000;0.000;2022-07-17T05:29:04;12.27;;;4.13;;
44636;SDS011;30343;0.000;0.000;2022-07-17T05:31:48;12.05;;;4.00;;
44636;SDS011;30343;0.000;0.000;2022-07-17T05:34:32;11.57;;;4.40;;
44636;SDS011;30343;0.000;0.000;2022-07-17T05:37:16;16.75;;;4.57;;
44636;SDS011;30343;0.000;0.000;2022-07-17T05:40:00;15.43;;;4.43;;
44636;SDS011;30343;0.000;0.000;2022-07-17T05:42:47;13.50;;;4.88;;
44636;SDS011;30343;0.000;0.000;2022-07-17T05:45:40;11.80;;;4.72;;
44636;SDS011;30343;0.000;0.000;2022-07-17T05:48:27;16.15;;;4.22;;
44636;SDS011;30343;0.000;0.000;2022-07-17T05:51:13;16.77;;;4.43;;
44636;SDS011;30343;0.000;0.000;2022-07-17T05:53:57;14.57;;;4.50;;
44636;SDS011;30343;0.000;0.000;2022-07-17T05:56:44;17.85;;;4.35;;
44636;SDS011;30343;0.000;0.000;2022-07-17T05:59:28;18.80;;;4.75;;
44636;SDS011;30343;0.000;0.000;2022-07-17T06:02:18;10.05;;;4.70;;
44636;SDS011;30343;0.000;0.000;2022-07-17T06:05:05;13.45;;;4.43;;
44636;SDS011;30343;0.000;0.000;2022-07-17T06:07:53;20.40;;;4.82;;
44636;SDS011;30343;0.000;0.000;2022-07-17T06:10:38;10.65;;;4.47;;
44636;SDS011;30343;0.000;0.000;2022-07-17T06:13:24;11.10;;;4.55;;
44636;SDS011;30343;0.000;0.000;2022-07-17T06:16:14;11.85;;;3.70;;
44636;SDS011;30343;0.000;0.000;2022-07-17T06:18:58;10.80;;;4.72;;
44636;SDS011;30343;0.000;0.000;2022-07-17T06:21:44;16.60;;;4.20;;
44636;SDS011;30343;0.000;0.000;2022-07-17T06:24:28;18.60;;;3.67;;
44636;SDS011;30343;0.000;0.000;2022-07-17T06:27:12;14.90;;;4.57;;
44636;SDS011;30343;0.000;0.000;2022-07-17T06:29:56;16.88;;;3.83;;
44636;SDS011;30343;0.000;0.000;2022-07-17T06:32:43;15.38;;;3.67;;
44636;SDS011;30343;0.000;0.000;2022-07-17T06:35:27;12.00;;;3.83;;
44636;SDS011;30343;0.000;0.000;2022-07-17T06:38:17;9.43;;;4.05;;
44636;SDS011;30343;0.000;0.000;2022-07-17T06:43:46;14.95;;;4.57;;
44636;SDS011;30343;0.000;0.000;2022-07-17T06:46:29;23.23;;;4.30;;
44636;SDS011;30343;0.000;0.000;2022-07-17T06:49:13;8.90;;;3.72;;
44636;SDS011;30343;0.000;0.000;2022-07-17T06:54:42;11.80;;;3.50;;
44636;SDS011;30343;0.000;0.000;2022-07-17T06:57:29;12.52;;;3.97;;
44636;SDS011;30343;0.000;0.000;2022-07-17T07:00:12;6.72;;;3.53;;
44636;SDS011;30343;0.000;0.000;2022-07-17T07:02:59;7.22;;;3.03;;
44636;SDS011;30343;0.000;0.000;2022-07-17T07:05:44;8.45;;;3.25;;
44636;SDS011;30343;0.000;0.000;2022-07-17T07:08:28;8.75;;;2.90;;
44636;SDS011;30343;0.000;0.000;2022-07-17T07:11:11;8.57;;;3.35;;
44636;SDS011;30343;0.000;0.000;2022-07-17T07:13:55;10.30;;;3.67;;
44636;SDS011;30343;0.000;0.000;2022-07-17T07:16:39;6.30;;;3.55;;
44636;SDS011;30343;0.000;0.000;2022-07-17T07:19:23;11.00;;;3.85;;
44636;SDS011;30343;0.000;0.000;2022-07-17T07:22:07;11.23;;;3.95;;
44636;SDS011;30343;0.000;0.000;2022-07-17T07:24:54;7.38;;;3.60;;
44636;SDS011;30343;0.000;0.000;2022-07-17T07:27:38;6.03;;;3.42;;
44636;SDS011;30343;0.000;0.000;2022-07-17T07:30:22;11.50;;;3.33;;
44636;SDS011;30343;0.000;0.000;2022-07-17T07:33:06;7.50;;;3.53;;
44636;SDS011;30343;0.000;0.000;2022-07-17T07:35:50;16.10;;;4.38;;
44636;SDS011;30343;0.000;0.000;2022-07-17T07:38:34;10.38;;;3.65;;
44636;SDS011;30343;0.000;0.000;2022-07-17T07:41:18;8.70;;;3.40;;
44636;SDS011;30343;0.000;0.000;2022-07-17T07:44:03;9.60;;;3.63;;
44636;SDS011;30343;0.000;0.000;2022-07-17T07:46:47;6.55;;;3.55;;
44636;SDS011;30343;0.000;0.000;2022-07-17T07:49:34;10.48;;;3.22;;
44636;SDS011;30343;0.000;0.000;2022-07-17T07:52:18;8.00;;;3.20;;
44636;SDS011;30343;0.000;0.000;2022-07-17T07:55:02;9.65;;;3.38;;
44636;SDS011;30343;0.000;0.000;2022-07-17T07:57:49;11.07;;;3.13;;
44636;SDS011;30343;0.000;0.000;2022-07-17T08:00:44;7.88;;;2.90;;
44636;SDS011;30343;0.000;0.000;2022-07-17T08:03:28;6.47;;;2.85;;
44636;SDS011;30343;0.000;0.000;2022-07-17T08:06:13;8.90;;;3.13;;
44636;SDS011;30343;0.000;0.000;2022-07-17T08:08:58;5.75;;;2.92;;
44636;SDS011;30343;0.000;0.000;2022-07-17T08:11:42;12.50;;;3.85;;
44636;SDS011;30343;0.000;0.000;2022-07-17T08:14:28;11.05;;;3.70;;
44636;SDS011;30343;0.000;0.000;2022-07-17T08:17:12;7.82;;;2.67;;
44636;SDS011;30343;0.000;0.000;2022-07-17T08:19:56;7.28;;;3.13;;
44636;SDS011;30343;0.000;0.000;2022-07-17T08:22:40;9.55;;;2.38;;
44636;SDS011;30343;0.000;0.000;2022-07-17T08:25:26;9.48;;;3.63;;
44636;SDS011;30343;0.000;0.000;2022-07-17T08:28:10;8.38;;;2.65;;
44636;SDS011;30343;0.000;0.000;2022-07-17T08:30:53;6.13;;;2.50;;
44636;SDS011;30343;0.000;0.000;2022-07-17T08:33:37;9.88;;;2.88;;
44636;SDS011;30343;0.000;0.000;2022-07-17T08:36:21;12.45;;;3.05;;
44636;SDS011;30343;0.000;0.000;2022-07-17T08:39:05;9.15;;;2.80;;
44636;SDS011;30343;0.000;0.000;2022-07-17T08:44:33;5.60;;;2.23;;
44636;SDS011;30343;0.000;0.000;2022-07-17T08:47:18;6.60;;;2.72;;
44636;SDS011;30343;0.000;0.000;2022-07-17T08:50:09;8.63;;;2.83;;
44636;SDS011;30343;0.000;0.000;2022-07-17T08:52:54;8.43;;;2.08;;
44636;SDS011;30343;0.000;0.000;2022-07-17T08:56:29;7.43;;;2.28;;
44636;SDS011;30343;0.000;0.000;2022-07-17T08:59:16;4.43;;;2.42;;
44636;SDS011;30343;0.000;0.000;2022-07-17T09:02:03;4.18;;;2.40;;
44636;SDS011;30343;0.000;0.000;2022-07-17T09:04:54;4.75;;;2.28;;
44636;SDS011;30343;0.000;0.000;2022-07-17T09:07:46;5.53;;;2.47;;
44636;SDS011;30343;0.000;0.000;2022-07-17T09:10:31;6.45;;;2.13;;
44636;SDS011;30343;0.000;0.000;2022-07-17T09:13:30;7.63;;;2.42;;
44636;SDS011;30343;0.000;0.000;2022-07-17T09:16:14;4.45;;;2.13;;
44636;SDS011;30343;0.000;0.000;2022-07-17T09:18:58;7.32;;;2.47;;
44636;SDS011;30343;0.000;0.000;2022-07-17T09:21:43;2.88;;;2.00;;
44636;SDS011;30343;0.000;0.000;2022-07-17T09:24:26;6.50;;;2.78;;
44636;SDS011;30343;0.000;0.000;2022-07-17T09:27:41;5.03;;;2.40;;
44636;SDS011;30343;0.000;0.000;2022-07-17T09:30:25;10.15;;;2.80;;
44636;SDS011;30343;0.000;0.000;2022-07-17T09:33:14;7.20;;;2.45;;
44636;SDS011;30343;0.000;0.000;2022-07-17T09:36:08;6.82;;;2.50;;
44636;SDS011;30343;0.000;0.000;2022-07-17T09:38:56;8.27;;;2.53;;
44636;SDS011;30343;0.000;0.000;2022-07-17T09:41:41;6.95;;;2.13;;
44636;SDS011;30343;0.000;0.000;2022-07-17T09:44:25;12.63;;;2.55;;
44636;SDS011;30343;0.000;0.000;2022-07-17T09:47:09;4.60;;;2.08;;
44636;SDS011;30343;0.000;0.000;2022-07-17T09:52:38;13.65;;;3.55;;
44636;SDS011;30343;0.000;0.000;2022-07-17T09:55:27;36.22;;;6.88;;
44636;SDS011;30343;0.000;0.000;2022-07-17T09:58:14;38.75;;;7.78;;
44636;SDS011;30343;0.000;0.000;2022-07-17T10:01:03;87.60;;;13.18;;
44636;SDS011;30343;0.000;0.000;2022-07-17T10:03:48;34.90;;;7.38;;
44636;SDS011;30343;0.000;0.000;2022-07-17T10:06:34;30.85;;;6.55;;
44636;SDS011;30343;0.000;0.000;2022-07-17T10:09:18;34.95;;;6.45;;
44636;SDS011;30343;0.000;0.000;2022-07-17T10:12:02;46.25;;;7.47;;
44636;SDS011;30343;0.000;0.000;2022-07-17T10:14:50;35.00;;;6.53;;
44636;SDS011;30343;0.000;0.000;2022-07-17T10:17:37;26.70;;;5.80;;
44636;SDS011;30343;0.000;0.000;2022-07-17T10:20:24;35.63;;;6.13;;
44636;SDS011;30343;0.000;0.000;2022-07-17T10:23:15;26.75;;;6.03;;
44636;SDS011;30343;0.000;0.000;2022-07-17T10:26:04;23.08;;;4.95;;
44636;SDS011;30343;0.000;0.000;2022-07-17T10:28:48;31.15;;;6.05;;
44636;SDS011;30343;0.000;0.000;2022-07-17T10:31:32;17.95;;;3.97;;
44636;SDS011;30343;0.000;0.000;2022-07-17T10:34:17;31.73;;;4.25;;
44636;SDS011;30343;0.000;0.000;2022-07-17T10:37:02;14.43;;;3.67;;
44636;SDS011;30343;0.000;0.000;2022-07-17T10:39:52;14.88;;;4.05;;
44636;SDS011;30343;0.000;0.000;2022-07-17T10:43:02;12.05;;;3.42;;
44636;SDS011;30343;0.000;0.000;2022-07-17T10:45:48;8.52;;;2.83;;
44636;SDS011;30343;0.000;0.000;2022-07-17T10:48:32;10.43;;;2.60;;
44636;SDS011;30343;0.000;0.000;2022-07-17T10:51:16;5.15;;;2.33;;
44636;SDS011;30343;0.000;0.000;2022-07-17T10:54:02;9.07;;;2.78;;
44636;SDS011;30343;0.000;0.000;2022-07-17T10:56:46;6.93;;;3.13;;
44636;SDS011;30343;0.000;0.000;2022-07-17T10:59:31;6.70;;;2.20;;
44636;SDS011;30343;0.000;0.000;2022-07-17T11:02:16;5.03;;;2.63;;
44636;SDS011;30343;0.000;0.000;2022-07-17T11:05:06;7.18;;;2.33;;
44636;SDS011;30343;0.000;0.000;2022-07-17T11:07:53;6.45;;;2.95;;
44636;SDS011;30343;0.000;0.000;2022-07-17T11:10:39;5.22;;;2.45;;
44636;SDS011;30343;0.000;0.000;2022-07-17T11:13:24;10.98;;;2.92;;
44636;SDS011;30343;0.000;0.000;2022-07-17T11:16:07;10.85;;;2.78;;
44636;SDS011;30343;0.000;0.000;2022-07-17T11:18:52;5.88;;;2.20;;
44636;SDS011;30343;0.000;0.000;2022-07-17T11:21:45;7.93;;;2.58;;
44636;SDS011;30343;0.000;0.000;2022-07-17T11:24:36;4.03;;;2.15;;
44636;SDS011;30343;0.000;0.000;2022-07-17T11:27:29;7.60;;;2.35;;
44636;SDS011;30343;0.000;0.000;2022-07-17T11:30:14;5.13;;;2.42;;
44636;SDS011;30343;0.000;0.000;2022-07-17T11:32:59;6.03;;;2.50;;
44636;SDS011;30343;0.000;0.000;2022-07-17T11:35:48;5.45;;;2.40;;
44636;SDS011;30343;0.000;0.000;2022-07-17T11:38:33;6.30;;;2.25;;
44636;SDS011;30343;0.000;0.000;2022-07-17T11:41:18;6.35;;;2.40;;
44636;SDS011;30343;0.000;0.000;2022-07-17T11:44:03;9.35;;;2.15;;
44636;SDS011;30343;0.000;0.000;2022-07-17T11:46:50;5.05;;;2.40;;
44636;SDS011;30343;0.000;0.000;2022-07-17T11:49:35;5.05;;;2.63;;
44636;SDS011;30343;0.000;0.000;2022-07-17T11:52:24;5.45;;;2.50;;
44636;SDS011;30343;0.000;0.000;2022-07-17T11:55:08;6.97;;;2.90;;
44636;SDS011;30343;0.000;0.000;2022-07-17T11:57:53;7.32;;;2.53;;
44636;SDS011;30343;0.000;0.000;2022-07-17T12:00:37;9.77;;;2.40;;
44636;SDS011;30343;0.000;0.000;2022-07-17T12:03:24;3.65;;;2.13;;
44636;SDS011;30343;0.000;0.000;2022-07-17T12:06:09;4.13;;;2.25;;
44636;SDS011;30343;0.000;0.000;2022-07-17T12:08:54;4.38;;;2.22;;
44636;SDS011;30343;0.000;0.000;2022-07-17T12:11:45;6.82;;;2.60;;
44636;SDS011;30343;0.000;0.000;2022-07-17T12:17:16;6.20;;;2.80;;
44636;SDS011;30343;0.000;0.000;2022-07-17T12:20:04;7.75;;;2.45;;
44636;SDS011;30343;0.000;0.000;2022-07-17T12:22:49;5.43;;;2.05;;
44636;SDS011;30343;0.000;0.000;2022-07-17T12:25:33;8.68;;;3.17;;
44636;SDS011;30343;0.000;0.000;2022-07-17T12:28:18;9.13;;;2.42;;
44636;SDS011;30343;0.000;0.000;2022-07-17T12:31:31;9.23;;;2.58;;
44636;SDS011;30343;0.000;0.000;2022-07-17T12:36:59;6.32;;;2.50;;
44636;SDS011;30343;0.000;0.000;2022-07-17T12:39:43;9.23;;;2.80;;
44636;SDS011;30343;0.000;0.000;2022-07-17T12:42:39;5.15;;;2.38;;
44636;SDS011;30343;0.000;0.000;2022-07-17T12:48:07;11.18;;;3.00;;
44636;SDS011;30343;0.000;0.000;2022-07-17T12:50:51;9.38;;;3.10;;
44636;SDS011;30343;0.000;0.000;2022-07-17T12:53:35;12.38;;;3.33;;
44636;SDS011;30343;0.000;0.000;2022-07-17T12:56:20;11.18;;;2.67;;
44636;SDS011;30343;0.000;0.000;2022-07-17T12:59:03;8.35;;;3.05;;
44636;SDS011;30343;0.000;0.000;2022-07-17T13:01:47;11.43;;;2.63;;
44636;SDS011;30343;0.000;0.000;2022-07-17T13:04:31;7.43;;;2.95;;
44636;SDS011;30343;0.000;0.000;2022-07-17T13:07:15;8.75;;;2.33;;
44636;SDS011;30343;0.000;0.000;2022-07-17T13:09:59;5.10;;;2.38;;
44636;SDS011;30343;0.000;0.000;2022-07-17T13:12:43;7.40;;;2.30;;
44636;SDS011;30343;0.000;0.000;2022-07-17T13:15:27;5.25;;;2.38;;
44636;SDS011;30343;0.000;0.000;2022-07-17T13:18:11;12.82;;;3.47;;
44636;SDS011;30343;0.000;0.000;2022-07-17T13:20:55;14.30;;;3.13;;
44636;SDS011;30343;0.000;0.000;2022-07-17T13:23:39;10.93;;;2.55;;
44636;SDS011;30343;0.000;0.000;2022-07-17T13:26:24;14.20;;;2.83;;
44636;SDS011;30343;0.000;0.000;2022-07-17T13:29:08;9.35;;;2.60;;
44636;SDS011;30343;0.000;0.000;2022-07-17T13:31:53;8.88;;;2.88;;
44636;SDS011;30343;0.000;0.000;2022-07-17T13:34:38;10.07;;;2.65;;
44636;SDS011;30343;0.000;0.000;2022-07-17T13:37:22;6.57;;;2.60;;
44636;SDS011;30343;0.000;0.000;2022-07-17T13:40:06;10.57;;;2.40;;
44636;SDS011;30343;0.000;0.000;2022-07-17T13:42:51;8.82;;;2.50;;
44636;SDS011;30343;0.000;0.000;2022-07-17T13:45:35;6.07;;;2.05;;
44636;SDS011;30343;0.000;0.000;2022-07-17T13:48:19;6.63;;;2.47;;
44636;SDS011;30343;0.000;0.000;2022-07-17T13:51:03;5.00;;;2.40;;
44636;SDS011;30343;0.000;0.000;2022-07-17T13:53:49;9.93;;;2.50;;
44636;SDS011;30343;0.000;0.000;2022-07-17T13:56:33;10.55;;;2.72;;
44636;SDS011;30343;0.000;0.000;2022-07-17T13:59:18;9.23;;;2.83;;
44636;SDS011;30343;0.000;0.000;2022-07-17T14:02:02;8.95;;;2.50;;
44636;SDS011;30343;0.000;0.000;2022-07-17T14:04:46;6.43;;;2.40;;
44636;SDS011;30343;0.000;0.000;2022-07-17T14:07:30;7.63;;;2.13;;
44636;SDS011;30343;0.000;0.000;2022-07-17T14:10:14;5.85;;;2.22;;
44636;SDS011;30343;0.000;0.000;2022-07-17T14:12:58;8.70;;;2.20;;
44636;SDS011;30343;0.000;0.000;2022-07-17T14:15:42;3.78;;;2.10;;
44636;SDS011;30343;0.000;0.000;2022-07-17T14:18:26;7.22;;;1.92;;
44636;SDS011;30343;0.000;0.000;2022-07-17T14:21:10;8.00;;;2.42;;
44636;SDS011;30343;0.000;0.000;2022-07-17T14:23:54;7.78;;;2.60;;
44636;SDS011;30343;0.000;0.000;2022-07-17T14:26:39;3.90;;;1.95;;
44636;SDS011;30343;0.000;0.000;2022-07-17T14:29:26;3.10;;;1.75;;
44636;SDS011;30343;0.000;0.000;2022-07-17T14:32:10;6.53;;;2.30;;
44636;SDS011;30343;0.000;0.000;2022-07-17T14:34:54;3.00;;;1.95;;
44636;SDS011;30343;0.000;0.000;2022-07-17T14:37:38;3.80;;;1.77;;
44636;SDS011;30343;0.000;0.000;2022-07-17T14:40:22;5.05;;;2.05;;
44636;SDS011;30343;0.000;0.000;2022-07-17T14:43:06;5.90;;;1.80;;
44636;SDS011;30343;0.000;0.000;2022-07-17T14:45:49;5.40;;;2.22;;
44636;SDS011;30343;0.000;0.000;2022-07-17T14:48:33;4.90;;;2.55;;
44636;SDS011;30343;0.000;0.000;2022-07-17T14:51:17;5.00;;;2.47;;
44636;SDS011;30343;0.000;0.000;2022-07-17T14:54:01;6.47;;;2.42;;
44636;SDS011;30343;0.000;0.000;2022-07-17T14:56:45;6.70;;;2.20;;
44636;SDS011;30343;0.000;0.000;2022-07-17T14:59:29;3.03;;;1.85;;
44636;SDS011;30343;0.000;0.000;2022-07-17T15:02:13;6.47;;;2.28;;
44636;SDS011;30343;0.000;0.000;2022-07-17T15:04:57;7.00;;;2.38;;
44636;SDS011;30343;0.000;0.000;2022-07-17T15:07:41;7.97;;;2.13;;
44636;SDS011;30343;0.000;0.000;2022-07-17T15:10:25;4.43;;;2.40;;
44636;SDS011;30343;0.000;0.000;2022-07-17T15:13:09;8.45;;;2.10;;
44636;SDS011;30343;0.000;0.000;2022-07-17T15:15:53;8.43;;;2.50;;
44636;SDS011;30343;0.000;0.000;2022-07-17T15:18:36;2.75;;;1.83;;
44636;SDS011;30343;0.000;0.000;2022-07-17T15:21:21;6.90;;;2.15;;
44636;SDS011;30343;0.000;0.000;2022-07-17T15:24:05;5.15;;;1.70;;
44636;SDS011;30343;0.000;0.000;2022-07-17T15:26:50;5.03;;;2.30;;
44636;SDS011;30343;0.000;0.000;2022-07-17T15:29:34;6.05;;;2.03;;
44636;SDS011;30343;0.000;0.000;2022-07-17T15:35:02;3.63;;;1.70;;
44636;SDS011;30343;0.000;0.000;2022-07-17T15:37:47;4.85;;;2.08;;
44636;SDS011;30343;0.000;0.000;2022-07-17T15:40:32;5.53;;;2.20;;
44636;SDS011;30343;0.000;0.000;2022-07-17T15:43:16;6.05;;;2.03;;
44636;SDS011;30343;0.000;0.000;2022-07-17T15:46:00;5.40;;;2.58;;
44636;SDS011;30343;0.000;0.000;2022-07-17T15:48:44;4.93;;;2.72;;
44636;SDS011;30343;0.000;0.000;2022-07-17T15:51:28;6.68;;;2.72;;
44636;SDS011;30343;0.000;0.000;2022-07-17T15:54:12;5.55;;;1.88;;
44636;SDS011;30343;0.000;0.000;2022-07-17T15:56:56;7.95;;;2.30;;
44636;SDS011;30343;0.000;0.000;2022-07-17T15:59:40;4.28;;;2.03;;
44636;SDS011;30343;0.000;0.000;2022-07-17T16:02:24;5.28;;;2.42;;
44636;SDS011;30343;0.000;0.000;2022-07-17T16:05:08;5.22;;;2.05;;
44636;SDS011;30343;0.000;0.000;2022-07-17T16:07:52;3.55;;;1.75;;
44636;SDS011;30343;0.000;0.000;2022-07-17T16:10:38;6.53;;;2.00;;
44636;SDS011;30343;0.000;0.000;2022-07-17T16:13:22;5.78;;;1.70;;
44636;SDS011;30343;0.000;0.000;2022-07-17T16:16:06;3.85;;;2.08;;
44636;SDS011;30343;0.000;0.000;2022-07-17T16:18:50;5.07;;;1.90;;
44636;SDS011;30343;0.000;0.000;2022-07-17T16:21:35;6.20;;;2.22;;
44636;SDS011;30343;0.000;0.000;2022-07-17T16:24:19;6.57;;;2.50;;
44636;SDS011;30343;0.000;0.000;2022-07-17T16:27:03;5.10;;;2.20;;
44636;SDS011;30343;0.000;0.000;2022-07-17T16:29:47;6.65;;;2.38;;
44636;SDS011;30343;0.000;0.000;2022-07-17T16:32:31;5.05;;;2.58;;
44636;SDS011;30343;0.000;0.000;2022-07-17T16:35:16;4.32;;;2.40;;
44636;SDS011;30343;0.000;0.000;2022-07-17T16:38:00;4.25;;;2.17;;
44636;SDS011;30343;0.000;0.000;2022-07-17T16:40:44;5.25;;;2.38;;
44636;SDS011;30343;0.000;0.000;2022-07-17T16:43:28;4.32;;;2.13;;
44636;SDS011;30343;0.000;0.000;2022-07-17T16:46:12;6.53;;;2.50;;
44636;SDS011;30343;0.000;0.000;2022-07-17T16:48:56;5.63;;;2.00;;
44636;SDS011;30343;0.000;0.000;2022-07-17T16:51:40;4.15;;;1.90;;
44636;SDS011;30343;0.000;0.000;2022-07-17T16:54:25;6.75;;;2.20;;
44636;SDS011;30343;0.000;0.000;2022-07-17T16:57:08;3.70;;;2.17;;
44636;SDS011;30343;0.000;0.000;2022-07-17T16:59:52;4.82;;;2.28;;
44636;SDS011;30343;0.000;0.000;2022-07-17T17:05:20;4.93;;;2.45;;
44636;SDS011;30343;0.000;0.000;2022-07-17T17:08:05;7.80;;;2.33;;
44636;SDS011;30343;0.000;0.000;2022-07-17T17:10:49;6.95;;;2.50;;
44636;SDS011;30343;0.000;0.000;2022-07-17T17:13:33;5.43;;;1.90;;
44636;SDS011;30343;0.000;0.000;2022-07-17T17:16:17;4.55;;;2.67;;
44636;SDS011;30343;0.000;0.000;2022-07-17T17:19:01;4.93;;;1.85;;
44636;SDS011;30343;0.000;0.000;2022-07-17T17:21:45;4.13;;;1.83;;